createdAt,value
2019-02-15T00:02:14.314Z,23.80
2019-02-15T00:05:08.916Z,23.80
2019-02-15T00:08:03.786Z,23.80
2019-02-15T00:10:58.477Z,23.70
2019-02-15T00:13:53.298Z,23.70
2019-02-15T00:16:48.123Z,23.70
2019-02-15T00:19:46.465Z,23.70
2019-02-15T00:22:41.051Z,23.70
2019-02-15T00:25:35.970Z,23.60
2019-02-15T00:28:30.737Z,23.60
2019-02-15T00:31:25.298Z,23.60
2019-02-15T00:34:19.516Z,23.60
2019-02-15T00:37:14.014Z,23.60
2019-02-15T00:40:08.980Z,23.60
2019-02-15T00:43:04.067Z,23.50
2019-02-15T00:46:17.733Z,23.50
2019-02-15T00:49:16.220Z,23.50
2019-02-15T00:52:27.012Z,23.50
2019-02-15T00:55:45.793Z,23.50
2019-02-15T00:58:58.029Z,23.50
2019-02-15T01:02:09.048Z,23.40
2019-02-15T01:05:23.947Z,23.40
2019-02-15T01:08:26.110Z,23.40
2019-02-15T01:11:41.507Z,23.40
2019-02-15T01:14:36.648Z,23.40
2019-02-15T01:17:31.475Z,23.40
2019-02-15T01:20:26.179Z,23.30
2019-02-15T01:23:20.787Z,23.30
2019-02-15T01:26:20.769Z,23.40
2019-02-15T01:29:48.175Z,23.40
2019-02-15T01:32:57.309Z,23.40
2019-02-15T01:36:10.200Z,23.40
2019-02-15T01:39:21.492Z,23.40
2019-02-15T01:42:45.750Z,23.40
2019-02-15T01:45:46.409Z,23.40
2019-02-15T01:48:40.796Z,23.40
2019-02-15T01:51:35.298Z,23.40
2019-02-15T01:54:29.881Z,23.40
2019-02-15T01:57:25.366Z,23.40
2019-02-15T02:00:21.507Z,23.40
2019-02-15T02:03:16.244Z,23.50
2019-02-15T02:06:11.730Z,23.50
2019-02-15T02:09:07.275Z,23.50
2019-02-15T02:12:02.135Z,23.50
2019-02-15T02:14:57.140Z,23.60
2019-02-15T02:17:52.438Z,23.50
2019-02-15T02:20:46.901Z,23.60
2019-02-15T02:23:41.697Z,23.60
2019-02-15T02:26:36.081Z,23.60
2019-02-15T02:29:30.892Z,23.70
2019-02-15T02:32:25.925Z,23.70
2019-02-15T02:35:20.658Z,23.70
2019-02-15T02:38:15.884Z,23.80
2019-02-15T02:41:10.471Z,23.80
2019-02-15T02:44:05.216Z,23.80
2019-02-15T02:47:03.735Z,23.90
2019-02-15T02:50:02.811Z,23.90
2019-02-15T02:53:07.142Z,24.00
2019-02-15T02:56:25.285Z,24.00
2019-02-15T02:59:22.705Z,24.10
2019-02-15T03:02:31.246Z,24.10
2019-02-15T03:05:30.737Z,24.20
2019-02-15T03:08:27.166Z,24.20
2019-02-15T03:11:25.058Z,24.30
2019-02-15T03:14:21.079Z,24.40
2019-02-15T03:17:18.830Z,24.40
2019-02-15T03:20:30.134Z,24.50
2019-02-15T03:23:36.840Z,24.50
2019-02-15T03:26:45.935Z,24.60
2019-02-15T03:29:43.415Z,24.60
2019-02-15T03:32:42.649Z,24.70
2019-02-15T03:35:44.101Z,24.70
2019-02-15T03:39:00.649Z,24.80
2019-02-15T03:42:00.539Z,24.90
2019-02-15T03:44:57.710Z,25.00
2019-02-15T03:48:06.012Z,25.00
2019-02-15T03:51:07.146Z,25.10
2019-02-15T03:54:06.960Z,25.20
2019-02-15T03:57:05.965Z,25.20
2019-02-15T04:00:02.846Z,25.30
2019-02-15T04:03:09.589Z,25.30
2019-02-15T04:06:07.499Z,25.40
2019-02-15T04:09:09.270Z,25.50
2019-02-15T04:12:09.203Z,25.60
2019-02-15T04:15:13.884Z,25.60
2019-02-15T04:18:10.464Z,25.70
2019-02-15T04:25:10.990Z,25.80
2019-02-15T04:28:07.075Z,25.90
2019-02-15T04:31:14.544Z,26.00
2019-02-15T04:34:20.877Z,26.10
2019-02-15T04:37:27.101Z,26.20
2019-02-15T04:40:45.928Z,26.30
2019-02-15T04:43:42.211Z,26.40
2019-02-15T04:46:39.838Z,26.40
2019-02-15T04:49:36.638Z,26.50
2019-02-15T04:52:36.045Z,26.60
2019-02-15T04:55:31.057Z,26.60
2019-02-15T04:58:27.972Z,26.70
2019-02-15T05:01:24.474Z,26.70
2019-02-15T05:04:29.731Z,26.70
2019-02-15T05:07:27.263Z,26.70
2019-02-15T05:10:23.091Z,26.80
2019-02-15T05:13:23.755Z,26.80
2019-02-15T05:16:24.638Z,26.90
2019-02-15T05:19:20.333Z,26.90
2019-02-15T05:22:16.441Z,27.00
2019-02-15T05:25:15.077Z,27.10
2019-02-15T05:28:11.531Z,27.10
2019-02-15T05:31:08.754Z,27.20
2019-02-15T05:34:05.913Z,27.30
2019-02-15T05:37:19.127Z,27.40
2019-02-15T05:40:14.786Z,27.40
2019-02-15T05:43:10.277Z,27.40
2019-02-15T05:46:05.663Z,27.40
2019-02-15T05:49:00.908Z,27.40
2019-02-15T05:52:09.524Z,27.40
2019-02-15T05:55:02.954Z,27.40
2019-02-15T05:57:57.989Z,27.40
2019-02-15T06:01:07.243Z,27.40
2019-02-15T06:04:08.058Z,27.50
2019-02-15T06:07:03.110Z,27.50
2019-02-15T06:09:59.084Z,27.50
2019-02-15T06:13:00.102Z,27.60
2019-02-15T06:15:59.649Z,27.60
2019-02-15T06:18:52.187Z,27.70
2019-02-15T06:21:49.727Z,27.70
2019-02-15T06:24:45.947Z,27.80
2019-02-15T06:27:41.472Z,27.90
2019-02-15T06:30:36.895Z,28.00
2019-02-15T06:33:32.193Z,28.10
2019-02-15T06:36:29.034Z,28.10
2019-02-15T06:39:28.279Z,28.10
2019-02-15T06:42:23.604Z,28.10
2019-02-15T06:45:24.937Z,28.10
2019-02-15T06:48:15.241Z,28.20
2019-02-15T06:51:11.317Z,28.20
2019-02-15T06:54:07.246Z,28.30
2019-02-15T06:57:03.014Z,28.40
2019-02-15T07:00:15.634Z,28.50
2019-02-15T07:03:36.993Z,28.50
2019-02-15T07:06:34.601Z,28.60
2019-02-15T07:09:30.310Z,28.70
2019-02-15T07:12:30.237Z,28.80
2019-02-15T07:15:33.501Z,28.90
2019-02-15T07:18:23.051Z,29.00
2019-02-15T07:21:19.776Z,29.10
2019-02-15T07:24:25.328Z,29.20
2019-02-15T07:28:05.194Z,29.20
2019-02-15T07:31:12.620Z,29.30
2019-02-15T07:34:11.226Z,29.20
2019-02-15T07:37:07.936Z,29.20
2019-02-15T07:40:02.983Z,29.30
2019-02-15T07:43:02.182Z,29.30
2019-02-15T07:45:58.334Z,29.30
2019-02-15T07:48:53.644Z,29.30
2019-02-15T07:51:49.108Z,29.40
2019-02-15T07:54:45.425Z,29.40
2019-02-15T07:57:41.173Z,29.50
2019-02-15T08:00:36.961Z,29.60
2019-02-15T08:03:32.566Z,29.60
2019-02-15T08:06:28.594Z,29.70
2019-02-15T08:09:23.860Z,29.70
2019-02-15T08:12:18.932Z,29.60
2019-02-15T08:15:14.751Z,29.60
2019-02-15T08:18:11.289Z,29.60
2019-02-15T08:21:07.687Z,29.50
2019-02-15T08:24:02.993Z,29.50
2019-02-15T08:26:59.497Z,29.50
2019-02-15T08:29:55.161Z,29.50
2019-02-15T08:32:52.347Z,29.50
2019-02-15T08:35:49.502Z,29.60
2019-02-15T08:38:48.248Z,29.60
2019-02-15T08:42:03.834Z,29.70
2019-02-15T08:45:20.237Z,29.70
2019-02-15T08:48:16.302Z,29.80
2019-02-15T08:51:11.527Z,29.90
2019-02-15T08:54:12.379Z,29.90
2019-02-15T08:57:07.613Z,29.90
2019-02-15T09:00:02.686Z,30.00
2019-02-15T09:02:57.559Z,30.00
2019-02-15T09:05:52.649Z,30.10
2019-02-15T09:08:47.443Z,30.10
2019-02-15T09:11:50.750Z,30.20
2019-02-15T09:14:48.061Z,30.30
2019-02-15T09:17:47.300Z,30.30
2019-02-15T09:20:42.371Z,30.30
2019-02-15T09:23:40.223Z,30.40
2019-02-15T09:26:35.603Z,30.30
2019-02-15T09:29:38.953Z,30.40
2019-02-15T09:32:34.411Z,30.40
2019-02-15T09:36:06.535Z,30.40
2019-02-15T09:39:02.328Z,30.40
2019-02-15T09:42:01.619Z,30.40
2019-02-15T09:44:57.019Z,30.60
2019-02-15T09:47:53.316Z,30.70
2019-02-15T09:50:52.633Z,30.90
2019-02-15T09:53:54.706Z,31.00
2019-02-15T09:56:51.161Z,31.00
2019-02-15T09:59:46.772Z,30.90
2019-02-15T10:02:43.756Z,30.80
2019-02-15T10:05:54.545Z,30.70
2019-02-15T10:08:50.031Z,30.70
2019-02-15T10:11:46.386Z,30.60
2019-02-15T10:14:42.210Z,30.50
2019-02-15T10:17:37.279Z,30.40
2019-02-15T10:20:40.625Z,30.30
2019-02-15T10:23:35.884Z,30.30
2019-02-15T10:26:32.764Z,30.20
2019-02-15T10:29:28.450Z,30.20
2019-02-15T10:32:25.745Z,30.20
2019-02-15T10:35:21.569Z,30.20
2019-02-15T10:38:24.987Z,30.20
2019-02-15T10:41:20.115Z,30.20
2019-02-15T10:44:16.129Z,30.20
2019-02-15T10:47:15.814Z,30.20
2019-02-15T10:50:16.316Z,30.20
2019-02-15T10:53:15.430Z,30.20
2019-02-15T10:56:11.450Z,30.20
2019-02-15T10:59:14.155Z,30.20
2019-02-15T11:02:09.696Z,30.20
2019-02-15T11:05:04.891Z,30.20
2019-02-15T11:08:00.101Z,30.10
2019-02-15T11:11:02.684Z,30.10
2019-02-15T11:13:58.917Z,30.10
2019-02-15T11:16:55.298Z,30.00
2019-02-15T11:19:52.799Z,30.00
2019-02-15T11:22:47.792Z,30.00
2019-02-15T11:25:43.076Z,29.90
2019-02-15T11:28:38.113Z,29.90
2019-02-15T11:31:33.280Z,29.80
2019-02-15T11:34:29.206Z,29.80
2019-02-15T11:37:27.417Z,29.70
2019-02-15T11:40:23.453Z,29.70
2019-02-15T11:43:19.574Z,29.70
2019-02-15T11:46:14.670Z,29.60
2019-02-15T11:49:21.465Z,29.60
2019-02-15T11:52:17.186Z,29.50
2019-02-15T11:55:14.201Z,29.50
2019-02-15T11:58:12.096Z,29.40
2019-02-15T12:01:07.999Z,29.40
2019-02-15T12:04:04.518Z,29.30
2019-02-15T12:07:00.757Z,29.20
2019-02-15T12:09:55.879Z,29.10
2019-02-15T12:12:51.118Z,29.00
2019-02-15T12:15:52.864Z,28.90
2019-02-15T12:18:49.860Z,28.90
2019-02-15T12:21:45.446Z,28.80
2019-02-15T12:24:43.155Z,28.70
2019-02-15T12:27:39.209Z,28.70
2019-02-15T12:30:34.414Z,28.60
2019-02-15T12:33:35.045Z,28.50
2019-02-15T12:36:32.389Z,28.50
2019-02-15T12:39:26.254Z,28.40
2019-02-15T12:42:20.967Z,28.40
2019-02-15T12:45:15.711Z,28.30
2019-02-15T12:48:11.890Z,28.30
2019-02-15T12:51:10.920Z,28.30
2019-02-15T12:54:06.291Z,28.20
2019-02-15T12:57:01.732Z,28.20
2019-02-15T12:59:56.526Z,28.20
2019-02-15T13:02:51.739Z,28.20
2019-02-15T13:05:47.980Z,28.20
2019-02-15T13:08:44.458Z,28.20
2019-02-15T13:11:39.480Z,28.20
2019-02-15T13:14:34.601Z,28.10
2019-02-15T13:17:33.760Z,28.10
2019-02-15T13:20:31.931Z,28.10
2019-02-15T13:23:27.166Z,28.10
2019-02-15T13:26:22.194Z,28.00
2019-02-15T13:29:17.803Z,28.00
2019-02-15T13:32:13.147Z,28.00
2019-02-15T13:35:07.977Z,27.90
2019-02-15T13:38:02.915Z,27.90
2019-02-15T13:41:01.065Z,27.90
2019-02-15T13:43:58.265Z,27.90
2019-02-15T13:46:52.407Z,27.90
2019-02-15T13:49:47.376Z,27.90
2019-02-15T13:52:42.679Z,27.90
2019-02-15T13:55:37.565Z,27.90
2019-02-15T13:58:32.633Z,27.80
2019-02-15T14:01:27.697Z,27.80
2019-02-15T14:04:22.593Z,27.70
2019-02-15T14:07:24.632Z,27.60
2019-02-15T14:10:19.395Z,27.40
2019-02-15T14:13:14.503Z,27.20
2019-02-15T14:16:09.454Z,27.00
2019-02-15T14:19:04.331Z,26.80
2019-02-15T14:21:59.150Z,26.70
2019-02-15T14:24:54.348Z,26.60
2019-02-15T14:27:49.279Z,26.40
2019-02-15T14:30:45.373Z,26.30
2019-02-15T14:33:41.122Z,26.20
2019-02-15T14:36:35.916Z,26.20
2019-02-15T14:39:30.789Z,26.10
2019-02-15T14:42:25.567Z,26.10
2019-02-15T14:45:20.672Z,26.00
2019-02-15T14:48:16.348Z,26.00
2019-02-15T14:51:13.398Z,26.00
2019-02-15T14:54:10.669Z,26.00
2019-02-15T14:57:05.716Z,26.00
2019-02-15T15:00:00.500Z,26.00
2019-02-15T15:02:55.946Z,26.00
2019-02-15T15:05:50.684Z,26.00
2019-02-15T15:08:45.914Z,25.90
2019-02-15T15:11:41.101Z,25.90
2019-02-15T15:14:36.508Z,25.90
2019-02-15T15:17:31.762Z,25.90
2019-02-15T15:20:26.687Z,25.90
2019-02-15T15:23:21.767Z,25.90
2019-02-15T15:26:17.065Z,25.90
2019-02-15T15:29:12.327Z,25.90
2019-02-15T15:32:07.266Z,25.90
2019-02-15T15:35:02.689Z,25.90
2019-02-15T15:37:58.578Z,25.80
2019-02-15T15:40:53.825Z,25.80
2019-02-15T15:43:50.548Z,25.80
2019-02-15T15:46:45.438Z,25.70
2019-02-15T15:49:40.460Z,25.50
2019-02-15T15:52:35.281Z,25.30
2019-02-15T15:55:30.036Z,25.00
2019-02-15T15:58:24.912Z,24.90
2019-02-15T16:01:20.092Z,24.70
2019-02-15T16:33:59.515Z,22.80
2019-02-15T16:36:54.730Z,22.70
2019-02-15T16:39:50.295Z,22.70
2019-02-15T16:42:45.037Z,22.60
2019-02-15T16:45:40.250Z,22.60
2019-02-15T16:48:41.894Z,22.50
2019-02-15T16:51:30.594Z,22.50
2019-02-15T16:54:26.868Z,22.50
2019-02-15T16:57:21.673Z,22.40
2019-02-15T17:00:17.003Z,22.40
2019-02-15T17:03:12.273Z,22.40
2019-02-15T17:06:08.783Z,22.40
2019-02-15T17:09:04.352Z,22.40
2019-02-15T17:11:59.089Z,22.40
2019-02-15T17:14:54.146Z,22.40
2019-02-15T17:17:50.541Z,22.40
2019-02-15T17:20:46.136Z,22.40
2019-02-15T17:23:41.413Z,22.40
2019-02-15T17:26:37.111Z,22.50
2019-02-15T17:29:32.368Z,22.50
2019-02-15T17:32:26.968Z,22.50
2019-02-15T17:35:22.130Z,22.50
2019-02-15T17:38:17.500Z,22.50
2019-02-15T17:41:12.864Z,22.50
2019-02-15T17:44:07.970Z,22.50
2019-02-15T17:47:02.590Z,22.60
2019-02-15T17:49:57.424Z,22.60
2019-02-15T17:52:52.522Z,22.60
2019-02-15T17:55:47.514Z,22.60
2019-02-15T17:58:43.406Z,22.60
2019-02-15T18:01:38.526Z,22.60
2019-02-15T18:04:33.565Z,22.60
2019-02-15T18:07:28.713Z,22.60
2019-02-15T18:10:23.850Z,22.60
2019-02-15T18:13:19.231Z,22.50
2019-02-15T18:16:14.187Z,22.60
2019-02-15T18:19:10.269Z,22.60
2019-02-15T18:22:04.992Z,22.60
2019-02-15T18:25:00.319Z,22.60
2019-02-15T18:27:55.608Z,22.60
2019-02-15T18:30:50.727Z,22.60
2019-02-15T18:33:45.655Z,22.60
2019-02-15T18:36:41.734Z,22.70
2019-02-15T18:39:37.476Z,22.70
2019-02-15T18:42:32.271Z,22.70
2019-02-15T18:45:27.404Z,22.60
2019-02-15T18:48:22.253Z,22.60
2019-02-15T18:51:17.611Z,22.60
2019-02-15T18:54:12.658Z,22.60
2019-02-15T18:57:07.488Z,22.60
2019-02-15T19:00:02.838Z,22.50
2019-02-15T19:02:58.502Z,22.50
2019-02-15T19:05:53.825Z,22.50
2019-02-15T19:08:48.826Z,22.50
2019-02-15T19:11:43.780Z,22.40
2019-02-15T19:14:39.123Z,22.40
2019-02-15T19:17:33.837Z,22.40
2019-02-15T19:20:28.868Z,22.40
2019-02-15T19:23:23.885Z,22.40
2019-02-15T19:26:18.669Z,22.40
2019-02-15T19:29:14.065Z,22.40
2019-02-15T19:32:09.052Z,22.40
2019-02-15T19:35:04.379Z,22.30
2019-02-15T19:37:58.793Z,22.30
2019-02-15T19:40:53.912Z,22.30
2019-02-15T19:43:48.573Z,22.30
2019-02-15T19:46:43.658Z,22.30
2019-02-15T19:49:39.169Z,22.30
2019-02-15T19:52:34.177Z,22.30
2019-02-15T19:55:29.095Z,22.30
2019-02-15T19:58:23.993Z,22.30
2019-02-15T20:01:18.829Z,22.30
2019-02-15T20:04:14.361Z,22.30
2019-02-15T20:07:09.360Z,22.30
2019-02-15T20:10:04.873Z,22.30
2019-02-15T20:13:00.861Z,22.30
2019-02-15T20:15:55.486Z,22.30
2019-02-15T20:18:51.028Z,22.30
2019-02-15T20:21:46.189Z,22.30
2019-02-15T20:24:41.424Z,22.20
2019-02-15T20:27:37.850Z,22.20
2019-02-15T20:30:32.913Z,22.20
2019-02-15T20:33:28.023Z,22.10
2019-02-15T20:36:23.162Z,22.10
2019-02-15T20:39:18.705Z,22.10
2019-02-15T20:42:14.088Z,22.10
2019-02-15T20:45:09.964Z,22.00
2019-02-15T20:48:11.216Z,22.00
2019-02-15T20:51:02.095Z,22.00
2019-02-15T20:53:57.245Z,21.90
2019-02-15T20:56:52.414Z,21.90
2019-02-15T20:59:47.215Z,21.90
2019-02-15T21:02:42.178Z,21.90
2019-02-15T21:05:37.628Z,21.90
2019-02-15T21:08:33.358Z,21.90
2019-02-15T21:11:29.355Z,21.90
2019-02-15T21:14:24.266Z,21.90
2019-02-15T21:17:19.197Z,21.80
2019-02-15T21:20:15.015Z,21.80
2019-02-15T21:23:09.486Z,21.80
2019-02-15T21:26:04.380Z,21.80
2019-02-15T21:28:59.731Z,21.80
2019-02-15T21:31:54.521Z,21.80
2019-02-15T21:34:49.446Z,21.70
2019-02-15T21:37:44.202Z,21.70
2019-02-15T21:40:38.890Z,21.70
2019-02-15T21:43:34.525Z,21.70
2019-02-15T21:46:29.116Z,21.70
2019-02-15T21:49:24.095Z,21.70
2019-02-15T21:52:19.387Z,21.70
2019-02-15T21:55:14.266Z,21.70
2019-02-15T21:58:09.134Z,21.70
2019-02-15T22:01:04.997Z,21.70
2019-02-15T22:04:00.125Z,21.70
2019-02-15T22:06:55.377Z,21.70
2019-02-15T22:09:50.223Z,21.70
2019-02-15T22:12:45.247Z,21.70
2019-02-15T22:15:40.177Z,21.70
2019-02-15T22:18:35.407Z,21.80
2019-02-15T22:21:30.539Z,21.70
2019-02-15T22:24:25.724Z,21.70
2019-02-15T22:27:20.258Z,21.70
2019-02-15T22:30:16.857Z,21.70
2019-02-15T22:33:11.823Z,21.60
2019-02-15T22:36:06.879Z,21.60
2019-02-15T22:39:01.860Z,21.60
2019-02-15T22:41:57.041Z,21.60
2019-02-15T22:44:51.989Z,21.60
2019-02-15T22:47:46.877Z,21.60
2019-02-15T22:50:41.796Z,21.60
2019-02-15T22:53:36.251Z,21.60
2019-02-15T22:56:31.062Z,21.60
2019-02-15T22:59:26.304Z,21.60
2019-02-15T23:02:21.854Z,21.60
2019-02-15T23:05:16.825Z,21.60
2019-02-15T23:08:11.830Z,21.60
2019-02-15T23:11:07.017Z,21.60
2019-02-15T23:14:02.818Z,21.60
2019-02-15T23:16:57.973Z,21.60
2019-02-15T23:19:52.891Z,21.60
2019-02-15T23:22:47.750Z,21.60
2019-02-15T23:25:42.755Z,21.60
2019-02-15T23:28:38.586Z,21.60
2019-02-15T23:31:33.861Z,21.70
2019-02-15T23:34:28.837Z,21.70
2019-02-15T23:37:23.839Z,21.70
2019-02-15T23:40:18.851Z,21.70
2019-02-15T23:43:13.900Z,21.70
2019-02-15T23:46:08.257Z,21.70
2019-02-15T23:49:03.542Z,21.60
2019-02-15T23:51:59.370Z,21.60
2019-02-15T23:54:54.786Z,21.60
2019-02-15T23:57:50.016Z,21.50
